Time;durP1;ratioP1;P1;durP2;ratioP2;P2;SDS_P1;SDS_P2;PMS_P1;PMS_P2;Temp;Humidity;BMP_temperature;BMP_pressure;BME280_temperature;BME280_humidity;BME280_pressure;Samples;Min_cycle;Max_cycle;Signal;HPM_P1;HPM_P2
2023/06/13 00:02:23;;;;;;;8.77;5.23;;;19.50;60.50;;;;;;10222411;28;20227;-71
2023/06/13 00:07:24;;;;;;;6.63;4.60;;;19.60;60.40;;;;;;10223480;28;20240;-71
2023/06/13 00:12:25;;;;;;;9.23;5.00;;;19.50;60.60;;;;;;10224892;28;20219;-71
2023/06/13 00:17:26;;;;;;;6.17;4.97;;;19.40;61.30;;;;;;10217589;28;20234;-72
2023/06/13 00:22:28;;;;;;;6.30;5.10;;;19.30;61.90;;;;;;10224740;28;20223;-71
2023/06/13 00:27:30;;;;;;;5.70;4.93;;;19.00;62.80;;;;;;10218788;28;20289;-70
2023/06/13 00:32:30;;;;;;;6.50;4.60;;;18.90;63.20;;;;;;10223627;28;21030;-71
2023/06/13 00:37:34;;;;;;;6.03;5.00;;;18.80;63.20;;;;;;10223690;28;20227;-71
2023/06/13 00:42:34;;;;;;;5.00;4.50;;;18.80;63.60;;;;;;10220694;28;20247;-71
2023/06/13 00:47:36;;;;;;;6.90;4.87;;;18.70;64.00;;;;;;10234611;28;20754;-71
2023/06/13 00:52:37;;;;;;;4.97;4.57;;;18.70;64.20;;;;;;10221300;28;20261;-71
2023/06/13 00:57:38;;;;;;;6.57;4.77;;;18.70;63.60;;;;;;10226106;28;20226;-72
2023/06/13 01:02:40;;;;;;;5.63;4.57;;;18.60;64.00;;;;;;10219168;28;20223;-71
2023/06/13 01:07:41;;;;;;;6.73;4.43;;;18.50;64.20;;;;;;10229256;28;20246;-72
2023/06/13 01:12:53;;;;;;;7.83;4.87;;;18.40;64.80;;;;;;10227728;28;20297;-70
2023/06/13 01:18:00;;;;;;;5.13;4.53;;;18.30;65.20;;;;;;10217335;28;20220;-70
2023/06/13 01:23:40;;;;;;;6.47;4.80;;;18.20;65.40;;;;;;10215323;28;20239;-71
2023/06/13 01:28:43;;;;;;;6.23;5.17;;;18.10;66.10;;;;;;10226887;28;20231;-71
2023/06/13 01:33:44;;;;;;;6.43;4.97;;;18.10;66.50;;;;;;10219410;28;20228;-71
2023/06/13 01:38:46;;;;;;;7.00;4.70;;;17.90;66.80;;;;;;10219095;28;20373;-71
2023/06/13 01:43:46;;;;;;;4.87;4.30;;;17.90;67.30;;;;;;10219111;28;20232;-71
2023/06/13 01:48:57;;;;;;;5.50;4.17;;;17.70;67.40;;;;;;10219118;28;20746;-70
2023/06/13 01:54:06;;;;;;;6.33;4.37;;;17.70;68.00;;;;;;10224142;28;20227;-71
2023/06/13 01:59:07;;;;;;;6.23;4.60;;;17.60;68.40;;;;;;10228697;28;20238;-71
2023/06/13 02:04:08;;;;;;;5.20;4.70;;;17.50;68.50;;;;;;10214354;28;20224;-71
2023/06/13 02:09:09;;;;;;;6.23;4.90;;;17.50;68.70;;;;;;10222837;28;20220;-70
2023/06/13 02:14:09;;;;;;;6.30;4.87;;;17.40;68.80;;;;;;10223968;28;20219;-70
2023/06/13 02:19:10;;;;;;;6.40;4.87;;;17.40;69.00;;;;;;10214551;28;20228;-71
2023/06/13 02:24:14;;;;;;;7.00;4.60;;;17.40;69.00;;;;;;10223718;28;20767;-71
2023/06/13 02:29:15;;;;;;;6.43;4.83;;;17.40;69.50;;;;;;10227057;28;20315;-71
2023/06/13 02:34:15;;;;;;;9.07;5.03;;;17.30;69.60;;;;;;10227954;28;20317;-71
2023/06/13 02:39:16;;;;;;;6.10;4.50;;;17.40;69.50;;;;;;10226658;28;20258;-71
2023/06/13 02:44:16;;;;;;;5.23;4.60;;;17.40;69.20;;;;;;10227719;28;20393;-71
2023/06/13 02:49:17;;;;;;;5.83;4.97;;;17.40;69.10;;;;;;10226885;28;20317;-73
2023/06/13 02:54:18;;;;;;;6.33;5.00;;;17.40;69.20;;;;;;10227717;28;20223;-72
2023/06/13 02:59:19;;;;;;;6.57;5.30;;;17.30;69.70;;;;;;10227339;28;20246;-72
2023/06/13 03:04:20;;;;;;;7.30;5.63;;;17.20;70.10;;;;;;10224704;28;20227;-71
2023/06/13 03:09:20;;;;;;;6.40;4.90;;;17.20;70.40;;;;;;10224836;28;20224;-71
2023/06/13 03:14:21;;;;;;;5.67;5.00;;;17.10;70.80;;;;;;10234613;28;20293;-71
2023/06/13 03:19:22;;;;;;;6.80;4.30;;;17.00;71.30;;;;;;10225015;28;20238;-70
2023/06/13 03:24:22;;;;;;;8.30;4.67;;;17.00;71.70;;;;;;10219103;28;20235;-71
2023/06/13 03:29:23;;;;;;;6.83;5.20;;;16.90;71.90;;;;;;10226199;28;20238;-70
2023/06/13 03:34:28;;;;;;;8.27;5.30;;;16.80;72.50;;;;;;10235203;28;20226;-71
2023/06/13 03:39:28;;;;;;;7.83;5.37;;;16.70;72.80;;;;;;10220627;28;20622;-70
2023/06/13 03:44:30;;;;;;;6.73;4.50;;;16.70;73.10;;;;;;10224173;28;20238;-69
2023/06/13 03:49:30;;;;;;;6.03;5.20;;;16.70;73.50;;;;;;10221293;28;20226;-70
2023/06/13 03:54:31;;;;;;;4.97;4.47;;;16.70;73.50;;;;;;10232945;28;20314;-70
2023/06/13 03:59:32;;;;;;;5.47;4.80;;;16.80;73.60;;;;;;10225186;28;20319;-70
2023/06/13 04:04:33;;;;;;;6.57;4.87;;;16.80;73.50;;;;;;10223368;28;20243;-70
2023/06/13 04:09:33;;;;;;;5.93;4.60;;;16.90;73.30;;;;;;10221240;28;20234;-70
2023/06/13 04:14:37;;;;;;;6.33;4.77;;;17.00;72.80;;;;;;10233992;28;20227;-72
2023/06/13 04:19:38;;;;;;;7.57;4.50;;;17.00;72.70;;;;;;10229294;28;20224;-71
2023/06/13 04:24:38;;;;;;;4.70;4.13;;;17.20;72.50;;;;;;10236066;28;20212;-71
2023/06/13 04:29:43;;;;;;;5.33;4.27;;;17.30;72.20;;;;;;10219125;28;20765;-70
2023/06/13 04:34:44;;;;;;;5.87;4.00;;;17.40;71.90;;;;;;10220810;28;20259;-72
2023/06/13 04:39:45;;;;;;;10.33;4.47;;;17.80;71.00;;;;;;10221014;28;20238;-71
2023/06/13 04:44:48;;;;;;;6.13;4.47;;;18.20;69.90;;;;;;10226093;28;20247;-71
2023/06/13 04:49:51;;;;;;;5.40;4.50;;;18.10;69.90;;;;;;10228334;28;20251;-71
2023/06/13 04:54:52;;;;;;;5.20;4.20;;;18.10;69.70;;;;;;10231009;28;20735;-70
2023/06/13 04:59:53;;;;;;;6.00;4.50;;;18.20;69.60;;;;;;10227402;28;20219;-70
2023/06/13 05:04:55;;;;;;;7.23;4.10;;;18.30;69.00;;;;;;10226722;28;20228;-72
2023/06/13 05:09:56;;;;;;;5.30;4.77;;;20.30;63.90;;;;;;10238296;28;20238;-71
2023/06/13 05:14:56;;;;;;;11.27;4.50;;;22.30;57.50;;;;;;10215060;28;20235;-72
2023/06/13 05:19:57;;;;;;;6.47;4.23;;;23.90;54.10;;;;;;10220574;28;20241;-72
2023/06/13 05:24:59;;;;;;;6.60;4.20;;;24.40;52.00;;;;;;10225889;28;20211;-71
2023/06/13 05:30:00;;;;;;;6.33;3.90;;;25.30;50.70;;;;;;10224016;28;20285;-72
2023/06/13 05:35:00;;;;;;;9.03;4.10;;;25.70;50.20;;;;;;10227575;28;20702;-72
2023/06/13 05:40:01;;;;;;;9.47;4.37;;;26.30;48.50;;;;;;10223150;28;20630;-71
2023/06/13 05:45:06;;;;;;;6.37;4.40;;;26.90;48.70;;;;;;10216894;28;20236;-72
2023/06/13 05:50:07;;;;;;;4.87;3.73;;;27.40;47.10;;;;;;10221560;28;20321;-71
2023/06/13 05:55:07;;;;;;;4.73;3.70;;;27.20;46.60;;;;;;10215850;28;20675;-72
2023/06/13 06:00:13;;;;;;;6.03;3.97;;;27.80;46.90;;;;;;10227084;28;20221;-71
2023/06/13 06:05:15;;;;;;;6.23;3.87;;;28.00;44.80;;;;;;10224820;28;20769;-71
2023/06/13 06:10:15;;;;;;;6.17;3.60;;;27.20;47.10;;;;;;10229303;28;20187;-71
2023/06/13 06:15:16;;;;;;;5.97;3.80;;;27.50;46.00;;;;;;10236639;28;20205;-71
2023/06/13 06:20:17;;;;;;;4.30;3.87;;;27.70;45.50;;;;;;10227882;28;20211;-71
2023/06/13 06:25:20;;;;;;;5.70;3.90;;;28.80;44.30;;;;;;10227419;28;20549;-70
2023/06/13 06:30:21;;;;;;;7.77;3.90;;;28.10;44.60;;;;;;10229647;28;20248;-71
2023/06/13 06:35:22;;;;;;;5.27;3.77;;;29.20;43.70;;;;;;10234651;28;20240;-71
2023/06/13 06:40:22;;;;;;;6.43;3.70;;;28.90;42.50;;;;;;10227892;28;20223;-71
2023/06/13 06:45:23;;;;;;;6.63;3.90;;;28.20;43.30;;;;;;10228170;28;20273;-72
2023/06/13 06:50:23;;;;;;;8.53;3.87;;;30.10;42.80;;;;;;10225353;28;20235;-71
2023/06/13 06:55:24;;;;;;;5.03;3.93;;;30.10;40.80;;;;;;10235015;28;20242;-71
2023/06/13 07:00:25;;;;;;;6.40;3.87;;;29.70;41.90;;;;;;10221431;28;20311;-71
2023/06/13 07:05:25;;;;;;;6.47;3.93;;;30.40;41.20;;;;;;10231442;28;20245;-72
2023/06/13 07:10:26;;;;;;;10.03;3.80;;;31.70;39.70;;;;;;10227986;28;20224;-70
2023/06/13 07:15:27;;;;;;;8.30;4.17;;;31.50;39.60;;;;;;10234862;28;20231;-70
2023/06/13 07:20:27;;;;;;;6.80;4.20;;;31.70;39.00;;;;;;10230916;28;20322;-72
2023/06/13 07:25:29;;;;;;;5.73;3.93;;;31.60;38.00;;;;;;10219095;28;20341;-71
2023/06/13 07:30:31;;;;;;;5.60;3.70;;;33.30;36.80;;;;;;10220322;28;20228;-72
2023/06/13 07:35:32;;;;;;;6.47;3.70;;;32.60;37.10;;;;;;10230471;28;20224;-70
2023/06/13 07:40:33;;;;;;;7.43;3.77;;;32.70;37.30;;;;;;10217791;28;20228;-72
2023/06/13 07:45:33;;;;;;;6.33;3.60;;;31.50;37.70;;;;;;10218050;28;20232;-71
2023/06/13 07:50:36;;;;;;;4.37;3.50;;;32.40;36.90;;;;;;10219459;28;20219;-71
2023/06/13 07:55:37;;;;;;;5.30;3.40;;;32.00;36.40;;;;;;10229606;28;20235;-71
2023/06/13 08:00:38;;;;;;;6.83;3.90;;;31.50;36.70;;;;;;10226378;28;20807;-72
2023/06/13 08:05:38;;;;;;;4.87;3.23;;;31.90;36.90;;;;;;10222171;28;20211;-72
2023/06/13 08:10:39;;;;;;;8.17;3.53;;;32.20;36.00;;;;;;10234000;28;20223;-71
2023/06/13 08:15:39;;;;;;;4.40;3.10;;;31.10;36.70;;;;;;10222142;28;20635;-71
2023/06/13 08:20:40;;;;;;;7.27;3.30;;;30.00;38.00;;;;;;10222938;28;20640;-70
2023/06/13 08:25:41;;;;;;;7.83;3.90;;;31.20;37.20;;;;;;10225556;28;20223;-70
2023/06/13 08:30:42;;;;;;;4.93;3.20;;;30.90;37.00;;;;;;10222446;28;20218;-71
2023/06/13 08:35:43;;;;;;;7.40;3.50;;;31.70;36.40;;;;;;10222101;28;20253;-71
2023/06/13 08:40:43;;;;;;;6.00;3.70;;;32.00;36.00;;;;;;10232144;28;20223;-72
2023/06/13 08:45:44;;;;;;;6.97;3.30;;;31.70;35.50;;;;;;10220746;28;20758;-71
2023/06/13 08:50:45;;;;;;;4.13;3.53;;;32.00;35.40;;;;;;10220772;28;20224;-72
2023/06/13 08:55:49;;;;;;;6.33;3.67;;;32.10;34.60;;;;;;10224569;28;20220;-72
2023/06/13 09:00:49;;;;;;;4.90;3.43;;;32.30;35.30;;;;;;10220987;28;20223;-72
2023/06/13 09:05:50;;;;;;;4.90;3.23;;;33.20;34.40;;;;;;10222886;28;20250;-71
2023/06/13 09:10:51;;;;;;;5.03;3.17;;;34.20;32.70;;;;;;10217581;28;20293;-71
2023/06/13 09:15:52;;;;;;;4.93;2.90;;;34.10;33.30;;;;;;10228893;28;20223;-71
2023/06/13 09:20:53;;;;;;;6.23;2.90;;;34.60;33.30;;;;;;10221661;28;20318;-72
2023/06/13 09:25:56;;;;;;;9.37;2.87;;;34.10;34.00;;;;;;10221130;28;20258;-71
2023/06/13 09:30:57;;;;;;;6.33;3.03;;;33.00;33.60;;;;;;10223665;28;20240;-71
2023/06/13 09:35:58;;;;;;;7.53;3.33;;;33.00;33.50;;;;;;10219157;28;20252;-71
2023/06/13 09:41:01;;;;;;;10.13;3.77;;;32.20;34.50;;;;;;10222073;28;20235;-72
2023/06/13 09:46:01;;;;;;;5.90;3.10;;;33.50;34.40;;;;;;10215245;28;20239;-71
2023/06/13 09:51:11;;;;;;;4.47;3.03;;;34.20;33.40;;;;;;10220255;28;20229;-71
2023/06/13 09:56:11;;;;;;;6.50;3.33;;;33.60;32.30;;;;;;10214077;28;20678;-71
2023/06/13 10:01:15;;;;;;;5.33;2.93;;;34.10;33.30;;;;;;10221445;28;20238;-71
2023/06/13 10:06:15;;;;;;;5.07;3.40;;;34.10;32.40;;;;;;10217276;28;20609;-71
2023/06/13 10:11:23;;;;;;;4.10;2.90;;;33.70;31.70;;;;;;10223941;28;20231;-71
2023/06/13 10:16:24;;;;;;;5.53;3.43;;;34.50;32.50;;;;;;10228870;28;20293;-71
2023/06/13 10:21:26;;;;;;;5.17;3.77;;;34.00;31.60;;;;;;10222620;28;20235;-71
2023/06/13 10:26:45;;;;;;;5.10;3.07;;;34.10;31.40;;;;;;10222014;28;20232;-71
2023/06/13 10:31:56;;;;;;;5.17;2.93;;;34.90;30.10;;;;;;10218043;28;20227;-72
2023/06/13 10:37:30;;;;;;;6.60;2.83;;;34.30;30.90;;;;;;10219459;28;20223;-72
2023/06/13 10:42:37;;;;;;;3.73;3.10;;;34.50;31.40;;;;;;10237749;28;20235;-72
2023/06/13 10:47:38;;;;;;;5.20;3.20;;;35.30;30.00;;;;;;10227335;28;20281;-71
2023/06/13 10:52:43;;;;;;;5.20;3.10;;;35.00;30.80;;;;;;10227679;28;20596;-71
2023/06/13 10:57:52;;;;;;;4.33;3.10;;;34.50;30.50;;;;;;10228236;28;20219;-71
2023/06/13 11:02:58;;;;;;;9.37;3.40;;;34.40;30.80;;;;;;10222924;28;20236;-70
2023/06/13 11:07:59;;;;;;;7.53;3.40;;;34.20;29.50;;;;;;10239677;28;20255;-71
2023/06/13 11:13:03;;;;;;;5.07;3.30;;;34.20;30.50;;;;;;10221755;28;20263;-72
2023/06/13 11:18:09;;;;;;;4.83;3.43;;;35.00;30.00;;;;;;10227024;28;20228;-72
2023/06/13 11:23:13;;;;;;;5.33;2.47;;;35.40;29.60;;;;;;10233334;28;20223;-72
2023/06/13 11:28:18;;;;;;;12.63;3.53;;;36.10;29.10;;;;;;10223852;28;20232;-72
2023/06/13 11:33:21;;;;;;;4.60;3.23;;;36.60;28.40;;;;;;10219614;28;20311;-72
2023/06/13 11:38:43;;;;;;;4.77;3.40;;;34.30;30.20;;;;;;10225839;28;20231;-73
2023/06/13 11:43:44;;;;;;;5.10;3.40;;;31.10;34.20;;;;;;10229293;28;20223;-70
2023/06/13 11:48:45;;;;;;;9.60;3.83;;;29.60;37.40;;;;;;10221321;28;20278;-71
2023/06/13 11:53:54;;;;;;;4.53;3.10;;;28.60;36.50;;;;;;10225109;28;20232;-71
2023/06/13 11:58:56;;;;;;;5.33;3.27;;;27.80;37.60;;;;;;10219074;28;20247;-70
2023/06/13 12:04:00;;;;;;;4.63;3.00;;;28.00;38.40;;;;;;10227035;28;20223;-71
2023/06/13 12:09:04;;;;;;;7.10;3.53;;;27.60;39.90;;;;;;10219111;28;20617;-70
2023/06/13 12:14:06;;;;;;;4.70;3.13;;;27.30;39.50;;;;;;10230773;28;20225;-71
2023/06/13 12:19:09;;;;;;;3.93;3.23;;;27.10;39.40;;;;;;10226078;28;20654;-71
2023/06/13 12:24:10;;;;;;;5.37;3.50;;;26.80;39.60;;;;;;10221814;28;20228;-71
2023/06/13 12:29:11;;;;;;;5.63;3.40;;;26.80;39.00;;;;;;10223983;28;20219;-72
2023/06/13 12:34:18;;;;;;;4.97;3.37;;;26.20;39.80;;;;;;10223876;28;20231;-71
2023/06/13 12:39:21;;;;;;;6.10;3.60;;;26.20;40.60;;;;;;10223353;28;20231;-70
2023/06/13 12:44:22;;;;;;;6.03;3.20;;;26.50;39.70;;;;;;10223193;28;20291;-71
2023/06/13 12:49:22;;;;;;;4.60;3.50;;;26.60;39.30;;;;;;10224747;28;20255;-71
2023/06/13 12:54:38;;;;;;;4.73;3.13;;;26.80;40.50;;;;;;10230444;28;20270;-70
2023/06/13 12:59:45;;;;;;;15.40;3.90;;;27.10;39.50;;;;;;10220867;28;20236;-71
2023/06/13 13:04:57;;;;;;;5.17;3.47;;;26.90;38.20;;;;;;10226474;28;20311;-71
2023/06/13 13:09:59;;;;;;;7.53;3.37;;;26.90;39.00;;;;;;10221410;28;20239;-71
2023/06/13 13:14:59;;;;;;;4.20;3.47;;;26.90;39.00;;;;;;10218385;28;20258;-71
2023/06/13 13:20:04;;;;;;;3.87;3.37;;;26.80;39.00;;;;;;10229924;28;20668;-72
2023/06/13 13:25:05;;;;;;;4.50;3.40;;;26.90;39.10;;;;;;10231232;28;20222;-71
2023/06/13 13:30:07;;;;;;;7.10;3.40;;;27.00;38.30;;;;;;10216724;28;20204;-71
2023/06/13 13:35:08;;;;;;;7.17;3.70;;;26.80;39.40;;;;;;10252616;28;20195;-72
2023/06/13 13:40:09;;;;;;;7.10;3.40;;;26.90;38.70;;;;;;10224430;28;20250;-71
2023/06/13 13:45:10;;;;;;;7.43;3.50;;;26.80;38.20;;;;;;10215872;28;20722;-71
2023/06/13 13:50:11;;;;;;;7.50;3.43;;;26.80;39.00;;;;;;10229062;28;20188;-71
2023/06/13 13:55:14;;;;;;;5.90;3.53;;;27.00;38.60;;;;;;10215140;28;20192;-71
2023/06/13 14:00:15;;;;;;;6.87;3.60;;;26.90;37.70;;;;;;10215191;28;20200;-71
2023/06/13 14:05:16;;;;;;;4.50;3.37;;;26.50;38.00;;;;;;10223555;28;20188;-71
2023/06/13 14:10:16;;;;;;;5.87;3.53;;;26.50;38.50;;;;;;10232236;28;20180;-71
2023/06/13 14:15:17;;;;;;;5.57;3.40;;;26.50;39.10;;;;;;10226501;28;20573;-72
2023/06/13 14:20:18;;;;;;;4.47;3.67;;;26.40;38.80;;;;;;10225926;28;20554;-70
2023/06/13 14:25:18;;;;;;;5.80;3.30;;;26.70;38.70;;;;;;10220861;28;20188;-71
2023/06/13 14:30:19;;;;;;;7.90;3.50;;;26.70;37.40;;;;;;10226247;28;20635;-71
2023/06/13 14:35:19;;;;;;;6.47;3.60;;;26.80;38.30;;;;;;10224400;28;20419;-71
2023/06/13 14:40:20;;;;;;;9.37;3.60;;;26.80;38.40;;;;;;10234479;28;20686;-71
2023/06/13 14:45:24;;;;;;;3.63;3.20;;;26.70;38.50;;;;;;10223569;28;20227;-70
2023/06/13 14:50:25;;;;;;;5.33;3.50;;;26.80;38.60;;;;;;10227713;28;20367;-70
2023/06/13 14:55:29;;;;;;;7.43;3.70;;;26.90;38.50;;;;;;10234703;28;20369;-70
2023/06/13 15:00:30;;;;;;;4.57;3.50;;;26.70;37.60;;;;;;10226021;28;20223;-71
2023/06/13 15:05:30;;;;;;;6.67;3.63;;;26.50;38.10;;;;;;10225888;28;20589;-71
2023/06/13 15:10:31;;;;;;;3.60;3.30;;;26.50;37.60;;;;;;10222054;28;20220;-70
2023/06/13 15:15:33;;;;;;;5.93;3.80;;;26.70;37.60;;;;;;10217407;28;20226;-71
2023/06/13 15:20:34;;;;;;;6.53;3.27;;;26.70;37.20;;;;;;10224229;28;20227;-72
2023/06/13 15:25:35;;;;;;;5.43;3.60;;;26.60;37.60;;;;;;10221240;28;20299;-71
2023/06/13 15:30:35;;;;;;;7.57;3.43;;;26.60;37.40;;;;;;10222266;28;20227;-69
2023/06/13 15:35:36;;;;;;;5.07;3.70;;;26.70;37.80;;;;;;10226921;28;20243;-70
2023/06/13 15:40:37;;;;;;;4.93;3.63;;;26.80;36.70;;;;;;10228741;28;20273;-71
2023/06/13 15:45:37;;;;;;;5.87;3.50;;;26.70;36.90;;;;;;10230238;28;20232;-71
2023/06/13 15:50:38;;;;;;;4.27;3.60;;;26.80;37.20;;;;;;10221433;28;20587;-71
2023/06/13 15:55:42;;;;;;;8.83;3.40;;;26.80;37.80;;;;;;10222200;28;20220;-71
2023/06/13 16:00:42;;;;;;;5.03;3.70;;;26.90;37.70;;;;;;10221373;28;20424;-72
2023/06/13 16:05:44;;;;;;;6.90;3.77;;;26.80;38.00;;;;;;10218617;28;20229;-70
2023/06/13 16:10:45;;;;;;;11.20;3.80;;;26.70;38.00;;;;;;10230660;28;20269;-71
2023/06/13 16:15:46;;;;;;;5.60;4.03;;;26.60;38.30;;;;;;10221330;28;20215;-70
2023/06/13 16:20:46;;;;;;;3.83;3.40;;;26.50;38.80;;;;;;10226562;28;20238;-70
2023/06/13 16:25:47;;;;;;;4.40;3.40;;;26.50;38.60;;;;;;10227793;28;20228;-71
2023/06/13 16:30:48;;;;;;;6.20;3.50;;;26.60;38.90;;;;;;10225197;28;20212;-70
2023/06/13 16:35:48;;;;;;;7.20;3.27;;;26.60;39.10;;;;;;10225301;28;20584;-69
2023/06/13 16:40:49;;;;;;;4.73;3.53;;;26.40;38.90;;;;;;10217174;28;20227;-70
2023/06/13 16:45:49;;;;;;;5.27;3.27;;;26.40;39.80;;;;;;10222560;28;20326;-71
2023/06/13 16:50:50;;;;;;;4.80;3.30;;;26.30;39.90;;;;;;10224568;28;20702;-71
2023/06/13 16:55:50;;;;;;;4.13;3.67;;;26.20;40.10;;;;;;10231669;28;20236;-71
2023/06/13 17:00:51;;;;;;;5.03;3.27;;;26.10;39.90;;;;;;10221270;28;20243;-70
2023/06/13 17:05:52;;;;;;;5.83;3.57;;;26.10;39.90;;;;;;10217232;28;20416;-71
2023/06/13 17:10:52;;;;;;;6.80;3.70;;;26.10;40.10;;;;;;10218862;28;20662;-71
2023/06/13 17:15:53;;;;;;;4.50;3.50;;;26.10;38.80;;;;;;10226273;28;20231;-71
2023/06/13 17:20:57;;;;;;;6.10;3.20;;;26.20;39.30;;;;;;10223605;28;20677;-72
2023/06/13 17:25:57;;;;;;;3.83;3.33;;;26.10;38.40;;;;;;10215817;28;20254;-70
2023/06/13 17:30:58;;;;;;;4.73;3.40;;;26.00;39.10;;;;;;10227750;28;20231;-72
2023/06/13 17:35:58;;;;;;;5.97;3.13;;;25.90;40.00;;;;;;10231411;28;20226;-72
2023/06/13 17:41:00;;;;;;;6.57;3.40;;;26.00;40.10;;;;;;10217326;28;20235;-71
2023/06/13 17:46:01;;;;;;;5.43;3.63;;;25.90;39.20;;;;;;10220048;28;20235;-71
2023/06/13 17:51:02;;;;;;;4.53;3.40;;;25.90;39.80;;;;;;10224270;28;20657;-70
2023/06/13 17:56:03;;;;;;;4.93;3.30;;;25.80;40.30;;;;;;10230631;28;20727;-70
2023/06/13 18:01:07;;;;;;;5.43;3.50;;;25.70;41.20;;;;;;10235625;28;20238;-71
2023/06/13 18:06:08;;;;;;;3.97;3.03;;;25.60;41.60;;;;;;10233765;28;20258;-71
2023/06/13 18:11:09;;;;;;;8.20;3.37;;;25.50;41.90;;;;;;10228948;28;20219;-70
2023/06/13 18:16:10;;;;;;;4.37;3.30;;;25.50;42.40;;;;;;10241549;28;20226;-72
2023/06/13 18:21:10;;;;;;;5.87;3.50;;;25.40;41.60;;;;;;10235840;28;20234;-71
2023/06/13 18:26:12;;;;;;;4.73;3.10;;;25.30;41.60;;;;;;10228382;28;20224;-71
2023/06/13 18:31:12;;;;;;;7.30;3.77;;;25.30;41.60;;;;;;10243243;28;20223;-71
2023/06/13 18:36:13;;;;;;;4.47;3.53;;;25.20;41.60;;;;;;10228210;28;20228;-72
2023/06/13 18:41:13;;;;;;;4.77;3.57;;;25.10;42.60;;;;;;10241921;28;20223;-71
2023/06/13 18:46:14;;;;;;;4.17;3.77;;;25.00;43.10;;;;;;10235153;28;20284;-71
2023/06/13 18:51:15;;;;;;;7.40;3.67;;;25.00;43.10;;;;;;10242455;28;20254;-71
2023/06/13 18:56:15;;;;;;;6.30;3.90;;;24.80;44.10;;;;;;10232815;28;20686;-71
2023/06/13 19:01:17;;;;;;;7.17;4.27;;;24.70;43.80;;;;;;10236899;28;20235;-70
2023/06/13 19:06:18;;;;;;;7.17;3.60;;;24.50;43.80;;;;;;10226592;28;20228;-70
2023/06/13 19:11:18;;;;;;;5.87;3.37;;;24.30;44.90;;;;;;10234280;28;20219;-70
2023/06/13 19:16:21;;;;;;;4.33;3.63;;;24.20;45.70;;;;;;10220773;28;20229;-72
2023/06/13 19:21:21;;;;;;;5.77;3.50;;;24.10;46.60;;;;;;10233649;28;20238;-71
2023/06/13 19:26:25;;;;;;;5.80;3.80;;;23.90;47.10;;;;;;10229268;28;20225;-70
2023/06/13 19:31:27;;;;;;;6.97;3.70;;;23.80;47.20;;;;;;10226784;28;20225;-72
2023/06/13 19:36:27;;;;;;;5.27;3.50;;;23.70;47.70;;;;;;10221368;28;20455;-71
2023/06/13 19:41:28;;;;;;;6.53;3.73;;;23.60;48.00;;;;;;10226379;28;20255;-71
2023/06/13 19:46:29;;;;;;;10.50;4.17;;;23.40;48.50;;;;;;10221375;28;20240;-71
2023/06/13 19:51:30;;;;;;;4.97;3.37;;;23.30;48.90;;;;;;10225726;28;20226;-71
2023/06/13 19:56:31;;;;;;;4.63;3.50;;;23.10;49.00;;;;;;10221474;28;20223;-71
2023/06/13 20:01:32;;;;;;;9.83;4.37;;;23.00;49.20;;;;;;10224400;28;20261;-71
2023/06/13 20:06:33;;;;;;;7.57;3.93;;;22.90;49.20;;;;;;10220805;28;20298;-70
2023/06/13 20:11:34;;;;;;;4.83;3.70;;;22.80;49.20;;;;;;10230219;28;20711;-71
2023/06/13 20:16:34;;;;;;;8.77;4.30;;;22.70;49.50;;;;;;10223840;28;20326;-71
2023/06/13 20:21:38;;;;;;;7.33;4.13;;;22.60;49.80;;;;;;10231689;28;20278;-71
2023/06/13 20:26:39;;;;;;;7.20;4.00;;;22.50;50.10;;;;;;10225164;28;20235;-71
2023/06/13 20:31:41;;;;;;;7.27;3.97;;;22.40;49.80;;;;;;10235238;28;20226;-73
2023/06/13 20:36:42;;;;;;;6.53;3.80;;;22.30;49.90;;;;;;10222804;28;20272;-71
2023/06/13 20:41:43;;;;;;;7.57;3.87;;;22.30;50.00;;;;;;10221523;28;20322;-71
2023/06/13 20:46:45;;;;;;;7.23;4.23;;;22.20;50.10;;;;;;10232237;28;20385;-70
2023/06/13 20:51:45;;;;;;;5.63;4.20;;;22.00;50.30;;;;;;10231103;28;20251;-72
2023/06/13 20:56:46;;;;;;;7.90;4.40;;;21.90;50.60;;;;;;10228548;28;20269;-72
2023/06/13 21:01:52;;;;;;;6.43;3.80;;;21.80;51.00;;;;;;10223423;28;20247;-71
2023/06/13 21:06:53;;;;;;;3.97;3.60;;;21.70;51.20;;;;;;10226028;28;20258;-71
2023/06/13 21:11:54;;;;;;;6.97;3.97;;;21.60;51.60;;;;;;10218775;28;20238;-71
2023/06/13 21:16:54;;;;;;;6.57;4.00;;;21.50;51.60;;;;;;10234507;28;20296;-71
2023/06/13 21:21:55;;;;;;;5.23;4.10;;;21.50;51.90;;;;;;10224973;28;20708;-70
2023/06/13 21:26:56;;;;;;;7.17;3.87;;;21.40;52.00;;;;;;10226897;28;20220;-71
2023/06/13 21:31:56;;;;;;;4.63;3.57;;;21.30;52.30;;;;;;10221449;28;20223;-71
2023/06/13 21:36:58;;;;;;;6.87;4.00;;;21.20;52.40;;;;;;10221246;28;20651;-70
2023/06/13 21:41:59;;;;;;;9.93;4.20;;;21.10;52.50;;;;;;10228727;28;20265;-71
2023/06/13 21:47:00;;;;;;;5.77;4.00;;;21.10;52.50;;;;;;10224112;28;20258;-71
2023/06/13 21:52:00;;;;;;;6.27;4.17;;;21.10;52.60;;;;;;10217392;28;20565;-72
2023/06/13 21:57:01;;;;;;;7.60;4.17;;;21.00;52.60;;;;;;10227141;28;20226;-71
2023/06/13 22:02:02;;;;;;;8.73;4.50;;;21.00;52.80;;;;;;10217296;28;20270;-72
2023/06/13 22:07:04;;;;;;;4.23;3.47;;;21.00;53.00;;;;;;10220953;28;20254;-72
2023/06/13 22:12:07;;;;;;;6.33;4.57;;;20.90;53.00;;;;;;10215292;28;20238;-71
2023/06/13 22:17:08;;;;;;;7.40;3.87;;;20.80;53.30;;;;;;10221504;28;20240;-71
2023/06/13 22:22:08;;;;;;;9.80;4.20;;;20.70;53.80;;;;;;10211666;28;20299;-71
2023/06/13 22:27:09;;;;;;;8.53;4.70;;;20.60;54.60;;;;;;10219714;28;20763;-70
2023/06/13 22:32:10;;;;;;;5.60;4.03;;;20.50;55.00;;;;;;10221208;28;20274;-72
2023/06/13 22:37:11;;;;;;;4.60;3.83;;;20.40;55.40;;;;;;10220761;28;20246;-71
2023/06/13 22:42:12;;;;;;;7.73;4.50;;;20.30;55.60;;;;;;10218100;28;20231;-71
2023/06/13 22:47:12;;;;;;;6.70;4.10;;;20.20;56.40;;;;;;10227309;28;20246;-71
2023/06/13 22:52:14;;;;;;;6.30;4.37;;;20.00;58.00;;;;;;10234261;28;20228;-72
2023/06/13 22:57:14;;;;;;;6.63;4.80;;;19.90;58.20;;;;;;10228406;28;20230;-72
2023/06/13 23:02:15;;;;;;;5.07;4.57;;;19.80;58.80;;;;;;10223855;28;20223;-70
2023/06/13 23:07:16;;;;;;;4.73;4.13;;;19.60;59.20;;;;;;10234017;28;20220;-70
2023/06/13 23:12:16;;;;;;;5.90;4.27;;;19.50;59.60;;;;;;10227421;28;20239;-71
2023/06/13 23:17:18;;;;;;;10.43;4.80;;;19.40;59.90;;;;;;10234617;28;20650;-72
2023/06/13 23:22:28;;;;;;;6.87;5.23;;;19.40;60.00;;;;;;10219746;28;20236;-70
2023/06/13 23:27:31;;;;;;;6.97;4.83;;;19.30;60.40;;;;;;10225157;28;20746;-71
2023/06/13 23:32:38;;;;;;;6.80;4.50;;;19.30;60.70;;;;;;10221627;28;20228;-71
2023/06/13 23:37:42;;;;;;;7.70;4.93;;;19.10;61.10;;;;;;10233029;28;20219;-70
2023/06/13 23:42:43;;;;;;;7.13;5.03;;;19.00;61.50;;;;;;10229364;28;20227;-71
2023/06/13 23:47:47;;;;;;;7.17;4.33;;;18.90;62.20;;;;;;10223329;28;20244;-72
2023/06/13 23:52:51;;;;;;;6.60;4.80;;;18.80;62.90;;;;;;10222860;28;20331;-71
2023/06/13 23:57:51;;;;;;;5.20;4.60;;;18.80;63.40;;;;;;10228669;28;20286;-71
